Time;durP1;ratioP1;P1;durP2;ratioP2;P2;SDS_P1;SDS_P2;PMS_P1;PMS_P2;Temp;Humidity;BMP_temperature;BMP_pressure;BME280_temperature;BME280_humidity;BME280_pressure;Samples;Min_cycle;Max_cycle;Signal;HPM_P1;HPM_P2
2023/06/11 00:02:08;;;;;;;;;;;20.20;76.20;;;;;;5090897;28;19949;-41
2023/06/11 00:04:35;;;;;;;;;;;20.10;77.20;;;;;;5072237;28;19992;-40
2023/06/11 00:07:02;;;;;;;;;;;20.10;76.50;;;;;;5055362;28;19938;-41
2023/06/11 00:09:29;;;;;;;;;;;20.10;76.40;;;;;;5093327;28;19988;-40
2023/06/11 00:11:55;;;;;;;;;;;20.00;77.80;;;;;;5074576;28;20023;-41
2023/06/11 00:14:23;;;;;;;;;;;20.00;76.90;;;;;;5074445;28;19988;-40
2023/06/11 00:16:49;;;;;;;;;;;19.90;77.60;;;;;;5070976;28;19937;-41
2023/06/11 00:19:19;;;;;;;;;;;19.90;76.90;;;;;;5099384;28;19983;-42
2023/06/11 00:21:46;;;;;;;;;;;19.90;77.00;;;;;;5100568;28;20033;-42
2023/06/11 00:24:13;;;;;;;;;;;19.80;77.30;;;;;;5091278;28;20319;-41
2023/06/11 00:26:40;;;;;;;;;;;19.80;79.80;;;;;;5071775;28;19940;-41
2023/06/11 00:29:06;;;;;;;;;;;19.80;78.10;;;;;;5079326;28;19961;-39
2023/06/11 00:31:33;;;;;;;;;;;19.80;80.40;;;;;;5091236;28;19985;-42
2023/06/11 00:34:00;;;;;;;;;;;19.70;80.90;;;;;;5088764;28;19993;-42
2023/06/11 00:36:29;;;;;;;;;;;19.60;81.30;;;;;;5073515;28;19946;-41
2023/06/11 00:38:56;;;;;;;;;;;19.60;83.70;;;;;;5097047;28;19936;-42
2023/06/11 00:41:24;;;;;;;;;;;19.60;82.10;;;;;;5075005;28;20033;-41
2023/06/11 00:43:52;;;;;;;;;;;19.60;83.70;;;;;;5071703;28;20428;-40
2023/06/11 00:46:21;;;;;;;;;;;19.50;83.20;;;;;;5084538;28;19955;-43
2023/06/11 00:48:48;;;;;;;;;;;19.50;82.90;;;;;;5078855;28;20321;-42
2023/06/11 00:51:15;;;;;;;;;;;19.50;81.70;;;;;;5079856;28;19995;-42
2023/06/11 00:53:43;;;;;;;;;;;19.40;81.70;;;;;;5074916;28;20308;-43
2023/06/11 00:56:11;;;;;;;;;;;19.40;81.10;;;;;;5061480;28;19989;-42
2023/06/11 00:58:38;;;;;;;;;;;19.40;83.40;;;;;;5078099;28;19952;-42
2023/06/11 01:01:05;;;;;;;;;;;19.40;81.50;;;;;;5079576;28;20016;-43
2023/06/11 01:03:33;;;;;;;;;;;19.40;81.10;;;;;;5072561;28;19936;-41
2023/06/11 01:06:01;;;;;;;;;;;19.30;80.60;;;;;;5072476;28;19964;-42
2023/06/11 01:08:28;;;;;;;;;;;19.30;81.80;;;;;;5066058;28;19964;-42
2023/06/11 01:11:01;;;;;;;;;;;19.30;81.60;;;;;;5061595;28;19988;-43
2023/06/11 01:13:28;;;;;;;;;;;19.30;81.10;;;;;;5073175;28;19979;-42
2023/06/11 01:15:56;;;;;;;;;;;19.20;82.00;;;;;;5086832;28;19989;-42
2023/06/11 01:18:23;;;;;;;;;;;19.20;81.90;;;;;;5072806;28;20040;-41
2023/06/11 01:20:51;;;;;;;;;;;19.20;81.10;;;;;;5055340;28;19942;-41
2023/06/11 01:23:22;;;;;;;;;;;19.20;82.40;;;;;;5072452;28;20417;-42
2023/06/11 01:25:55;;;;;;;;;;;19.10;82.40;;;;;;5092114;28;20162;-42
2023/06/11 01:28:26;;;;;;;;;;;19.10;81.80;;;;;;5066473;28;19941;-42
2023/06/11 01:30:55;;;;;;;;;;;19.10;83.60;;;;;;5056496;28;19995;-42
2023/06/11 01:33:24;;;;;;;;;;;19.10;84.70;;;;;;5054838;28;19939;-42
2023/06/11 01:35:52;;;;;;;;;;;19.10;85.50;;;;;;5083634;28;19992;-41
2023/06/11 01:38:21;;;;;;;;;;;19.10;85.70;;;;;;5090371;28;19941;-42
2023/06/11 01:40:48;;;;;;;;;;;19.10;88.20;;;;;;5063080;28;20346;-41
2023/06/11 01:43:14;;;;;;;;;;;19.10;86.30;;;;;;5083786;28;20406;-41
2023/06/11 01:45:43;;;;;;;;;;;19.10;84.60;;;;;;5074156;28;19957;-41
2023/06/11 01:48:10;;;;;;;;;;;19.00;85.00;;;;;;5061162;28;20022;-39
2023/06/11 01:50:36;;;;;;;;;;;19.00;84.00;;;;;;5090491;28;19948;-42
2023/06/11 01:53:03;;;;;;;;;;;19.00;84.10;;;;;;5069460;28;20424;-43
2023/06/11 01:55:29;;;;;;;;;;;19.00;85.90;;;;;;5064216;28;20400;-41
2023/06/11 01:57:56;;;;;;;;;;;18.90;83.70;;;;;;5064580;28;19939;-42
2023/06/11 02:00:23;;;;;;;;;;;18.90;84.30;;;;;;5077473;28;19944;-40
2023/06/11 02:02:51;;;;;;;;;;;18.90;85.50;;;;;;5085221;28;20031;-41
2023/06/11 02:05:17;;;;;;;;;;;18.90;85.00;;;;;;5105357;28;20010;-41
2023/06/11 02:07:45;;;;;;;;;;;18.90;86.70;;;;;;5086009;28;20465;-42
2023/06/11 02:10:11;;;;;;;;;;;18.80;85.30;;;;;;5076331;28;20387;-40
2023/06/11 02:12:38;;;;;;;;;;;18.80;88.50;;;;;;5075405;28;19994;-40
2023/06/11 02:15:05;;;;;;;;;;;18.70;86.70;;;;;;5059317;28;19995;-39
2023/06/11 02:17:32;;;;;;;;;;;18.70;86.20;;;;;;5082267;28;20001;-41
2023/06/11 02:20:00;;;;;;;;;;;18.70;90.20;;;;;;5082597;28;19986;-41
2023/06/11 02:22:26;;;;;;;;;;;18.70;88.80;;;;;;5075617;28;19991;-41
2023/06/11 02:24:53;;;;;;;;;;;18.70;89.10;;;;;;5075580;28;20486;-41
2023/06/11 02:27:20;;;;;;;;;;;18.70;89.30;;;;;;5058701;28;20449;-42
2023/06/11 02:29:46;;;;;;;;;;;18.60;87.40;;;;;;5058132;28;19999;-40
2023/06/11 02:32:13;;;;;;;;;;;18.60;87.50;;;;;;5057613;28;19943;-41
2023/06/11 02:34:39;;;;;;;;;;;18.60;87.70;;;;;;5078880;28;20030;-41
2023/06/11 02:37:08;;;;;;;;;;;18.60;89.00;;;;;;5079602;28;19992;-41
2023/06/11 02:39:35;;;;;;;;;;;18.50;87.90;;;;;;5093793;28;19975;-40
2023/06/11 02:42:01;;;;;;;;;;;18.50;89.60;;;;;;5058020;28;20352;-41
2023/06/11 02:44:28;;;;;;;;;;;18.50;89.00;;;;;;5057319;28;20057;-42
2023/06/11 02:46:54;;;;;;;;;;;18.40;87.70;;;;;;5079756;28;20051;-41
2023/06/11 02:49:21;;;;;;;;;;;18.40;90.60;;;;;;5102432;28;20430;-41
2023/06/11 02:51:48;;;;;;;;;;;18.40;89.60;;;;;;5094878;28;20312;-34
2023/06/11 02:54:16;;;;;;;;;;;18.40;90.80;;;;;;5075519;28;19996;-42
2023/06/11 02:56:42;;;;;;;;;;;18.40;90.00;;;;;;5082348;28;20397;-41
2023/06/11 02:59:09;;;;;;;;;;;18.30;90.10;;;;;;5086450;28;19992;-41
2023/06/11 03:01:38;;;;;;;;;;;18.30;90.40;;;;;;5090205;28;19940;-41
2023/06/11 03:04:05;;;;;;;;;;;18.30;90.50;;;;;;5068438;28;20315;-41
2023/06/11 03:06:31;;;;;;;;;;;18.30;93.00;;;;;;5077882;28;19962;-41
2023/06/11 03:08:58;;;;;;;;;;;18.30;90.90;;;;;;5078062;28;19949;-40
2023/06/11 03:11:26;;;;;;;;;;;18.20;90.40;;;;;;5077009;28;19950;-39
2023/06/11 03:13:53;;;;;;;;;;;18.20;91.90;;;;;;5081826;28;19945;-40
2023/06/11 03:16:20;;;;;;;;;;;18.20;92.30;;;;;;5086141;28;19941;-39
2023/06/11 03:18:46;;;;;;;;;;;18.20;90.70;;;;;;5083678;28;19990;-41
2023/06/11 03:21:13;;;;;;;;;;;18.20;91.40;;;;;;5067685;28;19972;-40
2023/06/11 03:23:40;;;;;;;;;;;18.10;91.40;;;;;;5092456;28;20027;-40
2023/06/11 03:26:06;;;;;;;;;;;18.10;91.10;;;;;;5092808;28;20058;-41
2023/06/11 03:28:34;;;;;;;;;;;18.10;91.30;;;;;;5088725;28;20000;-41
2023/06/11 03:31:02;;;;;;;;;;;18.10;92.00;;;;;;5081496;28;19998;-42
2023/06/11 03:33:28;;;;;;;;;;;18.10;91.90;;;;;;5079449;28;19947;-40
2023/06/11 03:35:55;;;;;;;;;;;18.00;93.20;;;;;;5097293;28;20102;-43
2023/06/11 03:38:21;;;;;;;;;;;18.00;92.50;;;;;;5091324;28;19993;-42
2023/06/11 03:40:48;;;;;;;;;;;18.00;91.80;;;;;;5091832;28;19975;-41
2023/06/11 03:43:15;;;;;;;;;;;18.00;91.70;;;;;;5056288;28;19966;-41
2023/06/11 03:45:43;;;;;;;;;;;17.90;91.60;;;;;;5069215;28;20045;-40
2023/06/11 03:48:09;;;;;;;;;;;17.90;91.70;;;;;;5068364;28;20425;-42
2023/06/11 03:50:36;;;;;;;;;;;17.90;92.80;;;;;;5057434;28;19940;-40
2023/06/11 03:53:03;;;;;;;;;;;17.90;92.10;;;;;;5089989;28;20313;-39
2023/06/11 03:55:30;;;;;;;;;;;17.90;94.30;;;;;;5072861;28;19972;-41
2023/06/11 03:57:56;;;;;;;;;;;17.90;92.60;;;;;;5062404;28;19946;-42
2023/06/11 04:00:23;;;;;;;;;;;17.90;93.80;;;;;;5090593;28;20032;-41
2023/06/11 04:02:53;;;;;;;;;;;17.90;92.90;;;;;;5079371;28;20005;-39
2023/06/11 04:05:20;;;;;;;;;;;17.80;94.20;;;;;;5056054;28;19940;-40
2023/06/11 04:07:47;;;;;;;;;;;17.90;94.50;;;;;;5084365;28;20009;-39
2023/06/11 04:10:13;;;;;;;;;;;17.90;95.90;;;;;;5076526;28;19937;-40
2023/06/11 04:12:40;;;;;;;;;;;17.90;96.40;;;;;;5082701;28;20033;-39
2023/06/11 04:15:07;;;;;;;;;;;17.90;95.30;;;;;;5080651;28;19990;-40
2023/06/11 04:17:34;;;;;;;;;;;17.90;96.50;;;;;;5063426;28;20026;-41
2023/06/11 04:20:02;;;;;;;;;;;17.90;97.30;;;;;;5075005;28;19948;-41
2023/06/11 04:22:29;;;;;;;;;;;17.90;96.70;;;;;;5103025;28;19941;-40
2023/06/11 04:24:56;;;;;;;;;;;17.90;98.10;;;;;;5092279;28;19954;-42
2023/06/11 04:27:22;;;;;;;;;;;17.90;96.90;;;;;;5102803;28;20025;-40
2023/06/11 04:29:52;;;;;;;;;;;17.90;97.30;;;;;;5073199;28;20004;-41
2023/06/11 04:32:20;;;;;;;;;;;17.90;97.10;;;;;;5075874;28;19989;-41
2023/06/11 04:34:48;;;;;;;;;;;17.90;98.20;;;;;;5061130;28;19971;-39
2023/06/11 04:37:17;;;;;;;;;;;17.90;97.60;;;;;;5072760;28;19979;-41
2023/06/11 04:39:44;;;;;;;;;;;17.90;99.30;;;;;;5057785;28;20058;-40
2023/06/11 04:42:11;;;;;;;;;;;17.90;98.20;;;;;;5072768;28;20005;-40
2023/06/11 04:44:38;;;;;;;;;;;18.00;98.80;;;;;;5072897;28;20456;-41
2023/06/11 04:47:06;;;;;;;;;;;18.00;98.60;;;;;;5055235;28;20055;-40
2023/06/11 04:49:33;;;;;;;;;;;18.00;99.20;;;;;;5057422;28;20319;-39
2023/06/11 04:51:59;;;;;;;;;;;18.10;99.90;;;;;;5073425;28;20003;-41
2023/06/11 04:54:28;;;;;;;;;;;18.10;99.90;;;;;;5087576;28;20003;-41
2023/06/11 04:56:54;;;;;;;;;;;18.10;99.70;;;;;;5072771;28;20389;-41
2023/06/11 04:59:21;;;;;;;;;;;18.20;99.90;;;;;;5055009;28;19987;-40
2023/06/11 05:01:50;;;;;;;;;;;18.20;99.90;;;;;;5074204;28;20354;-41
2023/06/11 05:04:16;;;;;;;;;;;18.20;99.90;;;;;;5085111;28;20384;-43
2023/06/11 05:06:45;;;;;;;;;;;18.30;99.90;;;;;;5067196;28;20048;-40
2023/06/11 05:09:12;;;;;;;;;;;18.30;99.90;;;;;;5061558;28;19990;-41
2023/06/11 05:11:41;;;;;;;;;;;18.40;99.50;;;;;;5054783;28;20467;-42
2023/06/11 05:14:07;;;;;;;;;;;18.40;99.50;;;;;;5060824;28;19992;-42
2023/06/11 05:16:34;;;;;;;;;;;18.50;99.90;;;;;;5054876;28;20014;-39
2023/06/11 05:19:01;;;;;;;;;;;18.60;99.90;;;;;;5065856;28;19952;-42
2023/06/11 05:21:28;;;;;;;;;;;18.60;99.90;;;;;;5054403;28;19988;-39
2023/06/11 05:23:56;;;;;;;;;;;18.70;99.90;;;;;;5057125;28;19944;-40
2023/06/11 05:26:31;;;;;;;;;;;18.80;99.90;;;;;;5054425;28;19957;-38
2023/06/11 05:28:59;;;;;;;;;;;18.90;99.90;;;;;;5072510;28;19943;-39
2023/06/11 05:31:26;;;;;;;;;;;19.00;99.90;;;;;;5054678;28;19948;-42
2023/06/11 05:33:52;;;;;;;;;;;19.10;99.90;;;;;;5079261;28;20290;-42
2023/06/11 05:36:20;;;;;;;;;;;19.20;99.90;;;;;;5092110;28;19993;-41
2023/06/11 05:38:47;;;;;;;;;;;19.30;99.80;;;;;;5077693;28;19971;-41
2023/06/11 05:41:14;;;;;;;;;;;19.40;99.60;;;;;;5061792;28;19938;-41
2023/06/11 05:43:41;;;;;;;;;;;19.60;99.90;;;;;;5054142;28;19959;-40
2023/06/11 05:46:09;;;;;;;;;;;19.70;99.50;;;;;;5054353;28;19949;-38
2023/06/11 05:48:36;;;;;;;;;;;19.80;99.70;;;;;;5072206;28;20543;-39
2023/06/11 05:51:02;;;;;;;;;;;19.90;99.60;;;;;;5072575;28;19998;-42
2023/06/11 05:53:29;;;;;;;;;;;20.00;99.20;;;;;;5070907;28;19945;-42
2023/06/11 05:55:55;;;;;;;;;;;20.20;99.30;;;;;;5056856;28;19979;-42
2023/06/11 05:58:23;;;;;;;;;;;20.30;99.00;;;;;;5091113;28;20002;-40
2023/06/11 06:00:50;;;;;;;;;;;20.40;98.90;;;;;;5072012;28;20307;-41
2023/06/11 06:03:18;;;;;;;;;;;20.50;98.80;;;;;;5053902;28;19971;-42
2023/06/11 06:05:44;;;;;;;;;;;20.60;98.40;;;;;;5054216;28;20441;-41
2023/06/11 06:08:11;;;;;;;;;;;20.70;98.00;;;;;;5078313;28;19972;-39
2023/06/11 06:10:37;;;;;;;;;;;20.80;97.90;;;;;;5050941;28;20241;-42
2023/06/11 06:13:04;;;;;;;;;;;21.00;97.70;;;;;;5063253;28;19981;-41
2023/06/11 06:15:31;;;;;;;;;;;21.10;97.50;;;;;;5084981;28;20340;-41
2023/06/11 06:17:57;;;;;;;;;;;21.20;97.40;;;;;;5081779;28;19983;-42
2023/06/11 06:20:25;;;;;;;;;;;21.30;96.80;;;;;;5074901;28;19990;-42
2023/06/11 06:22:52;;;;;;;;;;;21.40;96.60;;;;;;5072429;28;19946;-40
2023/06/11 06:25:18;;;;;;;;;;;21.50;96.50;;;;;;5073592;28;20038;-42
2023/06/11 06:27:45;;;;;;;;;;;21.60;96.50;;;;;;5055094;28;20002;-41
2023/06/11 06:30:13;;;;;;;;;;;21.80;96.10;;;;;;5080036;28;19989;-40
2023/06/11 06:32:39;;;;;;;;;;;21.90;95.90;;;;;;5074816;28;19983;-42
2023/06/11 06:35:07;;;;;;;;;;;22.00;95.70;;;;;;5076933;28;19941;-42
2023/06/11 06:37:34;;;;;;;;;;;22.10;95.40;;;;;;5076635;28;19946;-41
2023/06/11 06:40:01;;;;;;;;;;;22.30;95.40;;;;;;5079670;28;20378;-42
2023/06/11 06:42:28;;;;;;;;;;;22.40;95.10;;;;;;5075950;28;20437;-41
2023/06/11 06:44:54;;;;;;;;;;;22.50;94.80;;;;;;5067914;28;20391;-39
2023/06/11 06:47:21;;;;;;;;;;;22.60;94.50;;;;;;5089109;28;20056;-42
2023/06/11 06:49:48;;;;;;;;;;;22.70;94.30;;;;;;5057591;28;19985;-41
2023/06/11 06:52:14;;;;;;;;;;;22.80;94.40;;;;;;5083458;28;20027;-42
2023/06/11 06:54:43;;;;;;;;;;;23.00;94.40;;;;;;5076872;28;20002;-42
2023/06/11 06:57:10;;;;;;;;;;;23.20;93.70;;;;;;5091893;28;19943;-41
2023/06/11 06:59:37;;;;;;;;;;;23.20;93.50;;;;;;5098896;28;19947;-41
2023/06/11 07:02:03;;;;;;;;;;;23.40;93.00;;;;;;5094410;28;20379;-42
2023/06/11 07:04:30;;;;;;;;;;;23.50;92.70;;;;;;5085402;28;19987;-42
2023/06/11 07:06:57;;;;;;;;;;;23.60;93.00;;;;;;5075955;28;20485;-42
2023/06/11 07:09:23;;;;;;;;;;;23.70;92.60;;;;;;5083442;28;19996;-42
2023/06/11 07:11:52;;;;;;;;;;;23.80;92.20;;;;;;5092247;28;19940;-41
2023/06/11 07:14:19;;;;;;;;;;;23.90;91.80;;;;;;5080477;28;19938;-42
2023/06/11 07:16:46;;;;;;;;;;;24.00;92.00;;;;;;5095885;28;20368;-42
2023/06/11 07:19:12;;;;;;;;;;;24.10;91.80;;;;;;5089599;28;20442;-42
2023/06/11 07:21:39;;;;;;;;;;;24.20;91.10;;;;;;5103846;28;20026;-41
2023/06/11 07:24:07;;;;;;;;;;;24.30;90.70;;;;;;5064931;28;19945;-42
2023/06/11 07:26:33;;;;;;;;;;;24.40;91.20;;;;;;5091941;28;19954;-42
2023/06/11 07:29:02;;;;;;;;;;;24.60;91.00;;;;;;5069466;28;20030;-40
2023/06/11 07:31:32;;;;;;;;;;;24.60;90.90;;;;;;5086797;28;19951;-42
2023/06/11 07:33:58;;;;;;;;;;;24.80;91.20;;;;;;5088644;28;19943;-41
2023/06/11 07:36:25;;;;;;;;;;;25.00;90.60;;;;;;5100100;28;19988;-42
2023/06/11 07:38:52;;;;;;;;;;;25.10;90.30;;;;;;5061000;28;19945;-42
2023/06/11 07:41:18;;;;;;;;;;;25.20;90.00;;;;;;5090814;28;19942;-41
2023/06/11 07:43:45;;;;;;;;;;;25.30;90.10;;;;;;5075191;28;20283;-41
2023/06/11 07:46:14;;;;;;;;;;;25.40;90.10;;;;;;5078921;28;20398;-41
2023/06/11 07:48:41;;;;;;;;;;;25.60;89.80;;;;;;5055227;28;19961;-36
2023/06/11 07:51:08;;;;;;;;;;;25.70;88.80;;;;;;5078263;28;19999;-42
2023/06/11 07:53:37;;;;;;;;;;;25.90;89.10;;;;;;5078604;28;20023;-42
2023/06/11 07:56:03;;;;;;;;;;;26.10;88.80;;;;;;5085240;28;19947;-43
2023/06/11 07:58:30;;;;;;;;;;;26.30;87.20;;;;;;5061695;28;20021;-44
2023/06/11 08:00:57;;;;;;;;;;;26.30;86.50;;;;;;5070036;28;20027;-43
2023/06/11 08:03:24;;;;;;;;;;;26.50;86.40;;;;;;5084497;28;19997;-43
2023/06/11 08:05:51;;;;;;;;;;;26.50;86.40;;;;;;5064041;28;19990;-43
2023/06/11 08:08:18;;;;;;;;;;;26.70;86.10;;;;;;5065308;28;20012;-43
2023/06/11 08:10:50;;;;;;;;;;;26.70;84.80;;;;;;5089629;28;20030;-43
2023/06/11 08:13:17;;;;;;;;;;;26.80;84.80;;;;;;5079158;28;19946;-43
2023/06/11 08:15:44;;;;;;;;;;;26.90;85.00;;;;;;5077390;28;19996;-44
2023/06/11 08:18:11;;;;;;;;;;;27.00;83.50;;;;;;5082105;28;19940;-38
2023/06/11 08:20:39;;;;;;;;;;;27.10;83.90;;;;;;5055744;28;20005;-43
2023/06/11 08:23:05;;;;;;;;;;;27.20;84.00;;;;;;5055578;28;20022;-41
2023/06/11 08:25:32;;;;;;;;;;;27.40;82.60;;;;;;5086274;28;20012;-42
2023/06/11 08:27:59;;;;;;;;;;;27.50;82.80;;;;;;5085816;28;19966;-43
2023/06/11 08:30:25;;;;;;;;;;;27.70;82.20;;;;;;5073411;28;19925;-41
2023/06/11 08:32:52;;;;;;;;;;;27.90;83.20;;;;;;5083091;28;20335;-43
2023/06/11 08:35:20;;;;;;;;;;;27.90;80.00;;;;;;5077001;28;19925;-42
2023/06/11 08:37:48;;;;;;;;;;;28.00;80.50;;;;;;5080495;28;20452;-40
2023/06/11 08:40:15;;;;;;;;;;;28.10;80.30;;;;;;5078999;28;20342;-42
2023/06/11 08:42:41;;;;;;;;;;;28.10;78.90;;;;;;5075879;28;19925;-42
2023/06/11 08:45:08;;;;;;;;;;;28.20;79.20;;;;;;5093445;28;19989;-42
2023/06/11 08:47:35;;;;;;;;;;;28.30;79.80;;;;;;5071233;28;19971;-42
2023/06/11 08:50:02;;;;;;;;;;;28.40;78.70;;;;;;5081383;28;20372;-42
2023/06/11 08:52:29;;;;;;;;;;;28.50;78.80;;;;;;5078944;28;20377;-40
2023/06/11 08:58:00;;;;;;;;;;;28.80;78.90;;;;;;5044331;28;19939;-39
2023/06/11 09:00:27;;;;;;;;;;;29.00;76.20;;;;;;5047232;28;19996;-43
2023/06/11 09:02:54;;;;;;;;;;;29.10;76.40;;;;;;5036608;28;20011;-41
2023/06/11 09:05:21;;;;;;;;;;;29.30;77.00;;;;;;5032664;28;20398;-42
2023/06/11 09:07:48;;;;;;;;;;;29.30;76.20;;;;;;5041881;28;19993;-42
2023/06/11 09:10:15;;;;;;;;;;;29.30;75.90;;;;;;5046123;28;19945;-42
2023/06/11 09:12:42;;;;;;;;;;;29.40;75.70;;;;;;5045473;28;20329;-41
2023/06/11 09:15:12;;;;;;;;;;;29.40;75.00;;;;;;5041005;28;19948;-42
2023/06/11 09:17:39;;;;;;;;;;;29.40;74.10;;;;;;5038629;28;19990;-42
2023/06/11 09:20:06;;;;;;;;;;;29.60;76.70;;;;;;5038671;28;19937;-43
2023/06/11 09:22:32;;;;;;;;;;;29.80;75.70;;;;;;5040482;28;19952;-43
2023/06/11 09:25:02;;;;;;;;;;;29.90;73.00;;;;;;5043228;28;19943;-42
2023/06/11 09:27:29;;;;;;;;;;;30.10;75.00;;;;;;5043476;28;20001;-43
2023/06/11 09:29:56;;;;;;;;;;;30.20;72.50;;;;;;5032566;28;20007;-43
2023/06/11 09:32:25;;;;;;;;;;;30.20;73.20;;;;;;5022485;28;19955;-43
2023/06/11 09:34:52;;;;;;;;;;;30.30;72.00;;;;;;5032374;28;20001;-43
2023/06/11 09:37:18;;;;;;;;;;;30.40;72.70;;;;;;5030024;28;19982;-43
2023/06/11 09:39:45;;;;;;;;;;;30.50;73.00;;;;;;5043138;28;19998;-41
2023/06/11 09:42:13;;;;;;;;;;;30.60;72.80;;;;;;5034377;28;20329;-42
2023/06/11 09:44:39;;;;;;;;;;;30.60;70.60;;;;;;5048251;28;19969;-43
2023/06/11 09:47:06;;;;;;;;;;;30.60;72.00;;;;;;5049417;28;20376;-42
2023/06/11 09:49:34;;;;;;;;;;;30.80;73.30;;;;;;5038326;28;19925;-42
2023/06/11 09:52:01;;;;;;;;;;;31.10;72.00;;;;;;5043410;28;19931;-41
2023/06/11 09:54:28;;;;;;;;;;;31.10;67.80;;;;;;5043487;28;19971;-43
2023/06/11 09:56:54;;;;;;;;;;;31.10;69.00;;;;;;5038981;28;19959;-43
2023/06/11 09:59:23;;;;;;;;;;;31.20;67.30;;;;;;5033876;28;19997;-43
2023/06/11 10:01:50;;;;;;;;;;;31.10;68.20;;;;;;5045627;28;19939;-43
2023/06/11 10:04:16;;;;;;;;;;;31.10;67.60;;;;;;5044373;28;20310;-42
2023/06/11 10:06:46;;;;;;;;;;;31.30;68.20;;;;;;5024024;28;19983;-43
2023/06/11 10:09:13;;;;;;;;;;;31.40;68.90;;;;;;5040562;28;19999;-43
2023/06/11 10:11:40;;;;;;;;;;;31.50;67.30;;;;;;5036423;28;19936;-44
2023/06/11 10:14:11;;;;;;;;;;;31.60;64.50;;;;;;5040180;28;19987;-43
2023/06/11 10:16:37;;;;;;;;;;;31.60;64.80;;;;;;5045000;28;20313;-43
2023/06/11 10:19:06;;;;;;;;;;;31.60;66.00;;;;;;5027834;28;20031;-43
2023/06/11 10:21:36;;;;;;;;;;;31.60;65.10;;;;;;5042452;28;19931;-42
2023/06/11 10:24:05;;;;;;;;;;;31.60;66.40;;;;;;5038521;28;20430;-43
2023/06/11 10:26:35;;;;;;;;;;;31.70;65.50;;;;;;5050388;28;20359;-43
2023/06/11 10:29:02;;;;;;;;;;;31.90;64.60;;;;;;5050835;28;19953;-42
2023/06/11 10:31:28;;;;;;;;;;;32.10;67.00;;;;;;5026653;28;19939;-43
2023/06/11 10:34:00;;;;;;;;;;;32.10;64.20;;;;;;5034892;28;19998;-42
2023/06/11 10:36:27;;;;;;;;;;;32.20;63.60;;;;;;5039658;28;19945;-43
2023/06/11 10:39:05;;;;;;;;;;;32.20;64.20;;;;;;5050606;28;19998;-43
2023/06/11 10:41:31;;;;;;;;;;;32.40;63.60;;;;;;5040154;28;20068;-42
2023/06/11 10:43:58;;;;;;;;;;;32.40;63.80;;;;;;5039179;28;19985;-42
2023/06/11 10:46:25;;;;;;;;;;;32.60;64.90;;;;;;5048405;28;20200;-42
2023/06/11 10:48:52;;;;;;;;;;;32.60;62.40;;;;;;5045937;28;19953;-44
2023/06/11 10:51:18;;;;;;;;;;;32.80;63.70;;;;;;5040922;28;19939;-41
2023/06/11 10:53:53;;;;;;;;;;;32.80;61.50;;;;;;5039224;28;20024;-42
2023/06/11 10:56:21;;;;;;;;;;;32.90;58.60;;;;;;5035507;28;20006;-41
2023/06/11 10:58:49;;;;;;;;;;;32.80;60.50;;;;;;5050986;28;19944;-42
2023/06/11 11:01:16;;;;;;;;;;;32.90;58.80;;;;;;5037755;28;20008;-43
2023/06/11 11:03:43;;;;;;;;;;;32.90;59.40;;;;;;5062397;28;20386;-42
2023/06/11 11:06:10;;;;;;;;;;;33.00;61.00;;;;;;5040322;28;19980;-43
2023/06/11 11:08:37;;;;;;;;;;;33.00;60.10;;;;;;5057168;28;19953;-43
2023/06/11 11:11:04;;;;;;;;;;;33.20;60.70;;;;;;5045482;28;20401;-44
2023/06/11 11:13:32;;;;;;;;;;;33.30;57.60;;;;;;5043512;28;19941;-43
2023/06/11 11:15:59;;;;;;;;;;;33.30;57.10;;;;;;5048973;28;19940;-42
2023/06/11 11:18:25;;;;;;;;;;;33.30;58.00;;;;;;5042437;28;19942;-43
2023/06/11 11:20:52;;;;;;;;;;;33.30;58.80;;;;;;5068031;28;19948;-44
2023/06/11 11:23:19;;;;;;;;;;;33.40;58.30;;;;;;5065564;28;19967;-44
2023/06/11 11:25:45;;;;;;;;;;;33.40;54.80;;;;;;5065839;28;20066;-44
2023/06/11 11:28:12;;;;;;;;;;;33.40;57.60;;;;;;5044031;28;19972;-44
2023/06/11 11:30:40;;;;;;;;;;;33.50;56.40;;;;;;5048571;28;19991;-44
2023/06/11 11:33:07;;;;;;;;;;;33.60;55.90;;;;;;5047089;28;19925;-43
2023/06/11 11:35:34;;;;;;;;;;;33.60;55.60;;;;;;5051386;28;19933;-44
2023/06/11 11:38:00;;;;;;;;;;;33.70;56.80;;;;;;5067413;28;20303;-44
2023/06/11 11:40:29;;;;;;;;;;;33.70;54.50;;;;;;5056086;28;19925;-44
2023/06/11 11:42:56;;;;;;;;;;;33.70;55.10;;;;;;5053613;28;19984;-44
2023/06/11 11:45:23;;;;;;;;;;;33.80;54.80;;;;;;5062153;28;19941;-43
2023/06/11 11:47:51;;;;;;;;;;;33.80;55.80;;;;;;5059918;28;19980;-44
2023/06/11 11:50:18;;;;;;;;;;;33.70;55.70;;;;;;5038669;28;19939;-43
2023/06/11 11:52:46;;;;;;;;;;;33.70;56.90;;;;;;5069046;28;19929;-43
2023/06/11 11:55:12;;;;;;;;;;;33.90;53.80;;;;;;5038236;28;20051;-44
2023/06/11 11:57:39;;;;;;;;;;;33.80;52.60;;;;;;5054305;28;19968;-44
2023/06/11 12:00:08;;;;;;;;;;;33.70;53.20;;;;;;5044142;28;19974;-44
2023/06/11 12:02:34;;;;;;;;;;;33.60;54.00;;;;;;5047085;28;19945;-43
2023/06/11 12:05:02;;;;;;;;;;;33.70;55.50;;;;;;5054101;28;19959;-42
2023/06/11 12:07:29;;;;;;;;;;;34.00;54.80;;;;;;5048710;28;20434;-42
2023/06/11 12:09:55;;;;;;;;;;;34.00;52.40;;;;;;5043842;28;19928;-43
2023/06/11 12:12:22;;;;;;;;;;;34.10;51.70;;;;;;5033808;28;20322;-43
2023/06/11 12:14:49;;;;;;;;;;;34.00;51.30;;;;;;5067789;28;19991;-44
2023/06/11 12:17:15;;;;;;;;;;;34.00;52.20;;;;;;5050033;28;19945;-42
2023/06/11 12:19:42;;;;;;;;;;;34.10;54.20;;;;;;5056513;28;19988;-43
2023/06/11 12:22:10;;;;;;;;;;;34.20;53.80;;;;;;5052724;28;20026;-44
2023/06/11 12:24:37;;;;;;;;;;;34.30;54.20;;;;;;5052743;28;19998;-44
2023/06/11 12:27:04;;;;;;;;;;;34.40;53.50;;;;;;5053516;28;19941;-44
2023/06/11 12:29:30;;;;;;;;;;;34.50;53.30;;;;;;5048065;28;20364;-43
2023/06/11 12:31:57;;;;;;;;;;;34.60;51.80;;;;;;5067921;28;19979;-44
2023/06/11 12:34:23;;;;;;;;;;;34.60;52.40;;;;;;5065320;28;20035;-42
2023/06/11 12:36:51;;;;;;;;;;;34.50;51.80;;;;;;5049635;28;20374;-43
2023/06/11 12:39:19;;;;;;;;;;;34.30;53.80;;;;;;5067342;28;19944;-42
2023/06/11 12:41:46;;;;;;;;;;;34.20;52.80;;;;;;5048999;28;19984;-44
2023/06/11 12:44:13;;;;;;;;;;;34.20;52.40;;;;;;5050772;28;19941;-44
2023/06/11 12:46:39;;;;;;;;;;;34.00;51.90;;;;;;5052119;28;19941;-44
2023/06/11 12:49:06;;;;;;;;;;;34.00;54.10;;;;;;5050134;28;20045;-43
2023/06/11 12:51:36;;;;;;;;;;;34.20;52.80;;;;;;5051364;28;20373;-44
2023/06/11 12:54:03;;;;;;;;;;;34.20;52.60;;;;;;5047074;28;19949;-44
2023/06/11 12:56:31;;;;;;;;;;;33.90;50.00;;;;;;5042924;28;20386;-44
2023/06/11 12:58:58;;;;;;;;;;;33.80;50.30;;;;;;5042151;28;21086;-45
2023/06/11 13:01:24;;;;;;;;;;;33.70;52.20;;;;;;5032754;28;20377;-41
2023/06/11 13:03:51;;;;;;;;;;;33.80;52.20;;;;;;5024768;28;19994;-43
2023/06/11 13:06:18;;;;;;;;;;;34.00;53.20;;;;;;5026559;28;19941;-43
2023/06/11 13:08:45;;;;;;;;;;;34.20;54.30;;;;;;5042140;28;20001;-43
2023/06/11 13:11:11;;;;;;;;;;;34.50;54.40;;;;;;5046795;28;20481;-43
2023/06/11 13:13:39;;;;;;;;;;;34.70;51.70;;;;;;5046180;28;19946;-42
2023/06/11 13:16:06;;;;;;;;;;;34.80;51.30;;;;;;5039430;28;19945;-44
2023/06/11 13:18:33;;;;;;;;;;;34.80;49.10;;;;;;5051381;28;19944;-43
2023/06/11 13:21:00;;;;;;;;;;;34.60;51.10;;;;;;5035728;28;19988;-43
2023/06/11 13:23:31;;;;;;;;;;;34.50;49.00;;;;;;5035826;28;19993;-43
2023/06/11 13:25:57;;;;;;;;;;;34.50;50.30;;;;;;5037004;28;19938;-43
2023/06/11 13:28:24;;;;;;;;;;;34.50;50.80;;;;;;5033359;28;19975;-42
2023/06/11 13:30:53;;;;;;;;;;;34.50;48.90;;;;;;5050225;28;19942;-44
2023/06/11 13:33:20;;;;;;;;;;;34.50;49.60;;;;;;5033466;28;19950;-43
2023/06/11 13:35:46;;;;;;;;;;;34.50;50.40;;;;;;5038108;28;20270;-43
2023/06/11 13:38:13;;;;;;;;;;;34.50;49.80;;;;;;5048235;28;19951;-43
2023/06/11 13:40:40;;;;;;;;;;;34.60;50.30;;;;;;5025548;28;19935;-43
2023/06/11 13:43:07;;;;;;;;;;;34.70;48.80;;;;;;5033248;28;19989;-42
2023/06/11 13:45:33;;;;;;;;;;;34.80;48.70;;;;;;5030980;28;20071;-42
2023/06/11 13:48:04;;;;;;;;;;;34.90;49.80;;;;;;5041148;28;20476;-42
2023/06/11 13:50:30;;;;;;;;;;;34.90;49.60;;;;;;5038973;28;20317;-43
2023/06/11 13:52:57;;;;;;;;;;;35.10;49.70;;;;;;5048689;28;20350;-43
2023/06/11 13:55:24;;;;;;;;;;;35.30;48.10;;;;;;5048161;28;19944;-43
2023/06/11 13:57:50;;;;;;;;;;;35.50;49.10;;;;;;5047449;28;20020;-43
2023/06/11 14:00:17;;;;;;;;;;;35.60;48.60;;;;;;5046817;28;19997;-43
2023/06/11 14:02:44;;;;;;;;;;;35.60;48.60;;;;;;5030408;28;19952;-44
2023/06/11 14:05:12;;;;;;;;;;;35.50;48.80;;;;;;5051401;28;19935;-43
2023/06/11 14:07:38;;;;;;;;;;;35.40;48.50;;;;;;5042336;28;20001;-44
2023/06/11 14:10:06;;;;;;;;;;;35.30;49.00;;;;;;5051806;28;19990;-43
2023/06/11 14:12:32;;;;;;;;;;;35.40;50.90;;;;;;5050315;28;19993;-43
2023/06/11 14:14:59;;;;;;;;;;;35.30;48.30;;;;;;5046210;28;19943;-42
2023/06/11 14:17:27;;;;;;;;;;;35.20;48.50;;;;;;5054481;28;19950;-43
2023/06/11 14:19:54;;;;;;;;;;;35.30;48.10;;;;;;5050499;28;20347;-44